Time;durP1;ratioP1;P1;durP2;ratioP2;P2;SDS_P1;SDS_P2;PMS_P1;PMS_P2;Temp;Humidity;BMP_temperature;BMP_pressure;BME280_temperature;BME280_humidity;BME280_pressure;Samples;Min_cycle;Max_cycle;Signal;HPM_P1;HPM_P2
2022/12/11 00:00:08;;;;;;;46.13;24.67;;;-2.20;99.90;;;;;;4845121;29;20161;-63
2022/12/11 00:02:35;;;;;;;32.88;22.65;;;-2.20;99.90;;;;;;4852220;29;20474;-63
2022/12/11 00:05:02;;;;;;;32.42;22.05;;;-2.30;99.90;;;;;;4863091;29;20124;-63
2022/12/11 00:07:28;;;;;;;38.30;24.55;;;-2.30;99.90;;;;;;4859855;29;20115;-63
2022/12/11 00:09:55;;;;;;;35.58;25.17;;;-2.30;99.90;;;;;;4844464;29;20110;-63
2022/12/11 00:12:22;;;;;;;35.50;24.42;;;-2.30;99.90;;;;;;4844919;29;20644;-64
2022/12/11 00:14:49;;;;;;;35.85;23.85;;;-2.30;99.90;;;;;;4844884;29;20438;-63
2022/12/11 00:17:15;;;;;;;37.35;25.70;;;-2.30;99.90;;;;;;4844348;29;20102;-63
2022/12/11 00:19:42;;;;;;;41.15;25.88;;;-2.30;99.90;;;;;;4844780;29;20084;-63
2022/12/11 00:22:09;;;;;;;38.78;24.73;;;-2.40;99.90;;;;;;4855578;29;20049;-63
2022/12/11 00:24:35;;;;;;;37.88;24.65;;;-2.40;99.90;;;;;;4863297;29;20101;-63
2022/12/11 00:27:02;;;;;;;35.53;24.25;;;-2.40;99.90;;;;;;4859805;29;20056;-63
2022/12/11 00:29:29;;;;;;;36.25;23.33;;;-2.40;99.90;;;;;;4860272;29;20053;-63
2022/12/11 00:31:56;;;;;;;36.88;23.10;;;-2.40;99.90;;;;;;4862662;29;20136;-63
2022/12/11 00:34:22;;;;;;;39.83;24.52;;;-2.40;99.90;;;;;;4860998;29;20054;-63
2022/12/11 00:36:49;;;;;;;31.38;21.42;;;-2.50;99.90;;;;;;4862101;29;20038;-63
2022/12/11 00:39:16;;;;;;;33.70;23.33;;;-2.50;99.90;;;;;;4856493;29;20045;-63
2022/12/11 00:41:43;;;;;;;34.25;24.38;;;-2.50;99.90;;;;;;4844994;29;20042;-62
2022/12/11 00:44:10;;;;;;;37.13;24.48;;;-2.50;99.90;;;;;;4858055;29;20042;-63
2022/12/11 00:46:36;;;;;;;35.00;23.85;;;-2.50;99.90;;;;;;4844134;29;20110;-62
2022/12/11 00:49:03;;;;;;;32.22;22.75;;;-2.50;99.90;;;;;;4847202;29;20526;-62
2022/12/11 00:51:30;;;;;;;32.53;22.05;;;-2.50;99.90;;;;;;4862129;29;20085;-62
2022/12/11 00:53:56;;;;;;;31.40;22.13;;;-2.60;99.90;;;;;;4861331;29;20619;-63
2022/12/11 00:56:24;;;;;;;40.65;25.48;;;-2.60;99.90;;;;;;4859542;29;20049;-62
2022/12/11 00:58:51;;;;;;;37.42;25.00;;;-2.60;99.90;;;;;;4861304;29;20041;-62
2022/12/11 01:01:17;;;;;;;35.65;23.95;;;-2.60;99.90;;;;;;4862313;29;20105;-62
2022/12/11 01:03:44;;;;;;;37.13;24.65;;;-2.60;99.90;;;;;;4849856;29;20050;-62
2022/12/11 01:06:11;;;;;;;42.95;25.42;;;-2.50;99.90;;;;;;4843645;29;20041;-63
2022/12/11 01:08:37;;;;;;;35.92;23.95;;;-2.60;99.90;;;;;;4846644;29;20499;-63
2022/12/11 01:11:04;;;;;;;35.03;21.95;;;-2.60;99.90;;;;;;4846764;29;20466;-62
2022/12/11 01:13:31;;;;;;;33.03;23.00;;;-2.60;99.90;;;;;;4851816;29;20077;-61
2022/12/11 01:15:58;;;;;;;35.50;22.90;;;-2.60;99.90;;;;;;4854816;29;20042;-62
2022/12/11 01:18:24;;;;;;;31.70;21.05;;;-2.60;99.90;;;;;;4843263;29;20486;-62
2022/12/11 01:20:51;;;;;;;38.70;23.52;;;-2.60;99.90;;;;;;4860567;29;20090;-63
2022/12/11 01:23:18;;;;;;;37.95;23.35;;;-2.60;99.90;;;;;;4859623;29;20069;-62
2022/12/11 01:25:45;;;;;;;34.70;22.92;;;-2.60;99.90;;;;;;4859586;29;20041;-62
2022/12/11 01:28:11;;;;;;;37.65;23.10;;;-2.60;99.90;;;;;;4859813;29;20078;-63
2022/12/11 01:30:38;;;;;;;34.85;22.58;;;-2.60;99.90;;;;;;4860230;29;20053;-62
2022/12/11 01:33:05;;;;;;;29.17;20.90;;;-2.60;99.90;;;;;;4860349;29;20054;-62
2022/12/11 01:35:32;;;;;;;32.33;20.63;;;-2.70;99.90;;;;;;4860724;29;20073;-62
2022/12/11 01:37:58;;;;;;;32.15;21.08;;;-2.60;99.90;;;;;;4860734;29;20037;-62
2022/12/11 01:40:25;;;;;;;37.42;23.52;;;-2.70;99.90;;;;;;4861612;29;20046;-62
2022/12/11 01:42:52;;;;;;;33.78;21.90;;;-2.70;99.90;;;;;;4861516;29;20419;-61
2022/12/11 01:45:19;;;;;;;32.42;21.40;;;-2.70;99.90;;;;;;4859525;29;20046;-63
2022/12/11 01:47:45;;;;;;;25.95;19.10;;;-2.70;99.90;;;;;;4861584;29;20049;-62
2022/12/11 01:50:12;;;;;;;29.58;20.02;;;-2.70;99.90;;;;;;4861858;29;20069;-63
2022/12/11 01:52:39;;;;;;;32.55;20.98;;;-2.70;99.90;;;;;;4858852;29;20045;-62
2022/12/11 01:55:06;;;;;;;35.90;21.55;;;-2.70;99.90;;;;;;4860215;29;20053;-62
2022/12/11 01:57:32;;;;;;;30.10;19.95;;;-2.70;99.90;;;;;;4842852;29;20042;-62
2022/12/11 01:59:59;;;;;;;32.05;19.67;;;-2.80;99.90;;;;;;4842831;29;20042;-62
2022/12/11 02:02:26;;;;;;;31.48;19.25;;;-2.80;99.90;;;;;;4841084;29;20097;-62
2022/12/11 02:04:53;;;;;;;31.17;19.05;;;-2.80;99.90;;;;;;4842325;29;20427;-62
2022/12/11 02:07:20;;;;;;;31.27;19.10;;;-2.80;99.90;;;;;;4842603;29;20494;-62
2022/12/11 02:09:46;;;;;;;29.08;19.52;;;-2.70;99.90;;;;;;4855645;29;20097;-62
2022/12/11 02:12:13;;;;;;;28.27;18.92;;;-2.80;99.90;;;;;;4860266;29;20053;-62
2022/12/11 02:14:40;;;;;;;31.17;19.45;;;-2.70;99.90;;;;;;4858784;29;20136;-62
2022/12/11 02:17:06;;;;;;;30.33;20.20;;;-2.80;99.90;;;;;;4845444;29;20095;-62
2022/12/11 02:19:33;;;;;;;27.00;17.55;;;-2.80;99.90;;;;;;4841882;29;20073;-61
2022/12/11 02:22:00;;;;;;;31.73;19.45;;;-2.80;99.90;;;;;;4852161;29;20101;-62
2022/12/11 02:24:27;;;;;;;26.95;18.35;;;-2.80;99.90;;;;;;4842292;29;20106;-62
2022/12/11 02:26:54;;;;;;;29.70;19.17;;;-2.80;99.90;;;;;;4842140;29;20057;-63
2022/12/11 02:29:21;;;;;;;25.27;17.40;;;-2.80;99.90;;;;;;4842505;29;20094;-62
2022/12/11 02:31:47;;;;;;;28.08;17.98;;;-2.80;99.90;;;;;;4842501;29;20098;-62
2022/12/11 02:34:14;;;;;;;26.05;16.33;;;-2.80;99.90;;;;;;4841420;29;20137;-61
2022/12/11 02:36:41;;;;;;;24.73;18.08;;;-2.80;99.90;;;;;;4842227;29;20459;-62
2022/12/11 02:39:08;;;;;;;28.02;18.17;;;-2.80;99.90;;;;;;4842001;29;20200;-62
2022/12/11 02:41:34;;;;;;;24.63;16.35;;;-2.80;99.90;;;;;;4852804;29;20060;-61
2022/12/11 02:44:01;;;;;;;27.92;17.30;;;-2.80;99.90;;;;;;4860294;29;20558;-62
2022/12/11 02:46:28;;;;;;;27.08;18.33;;;-2.80;99.90;;;;;;4859835;29;20045;-61
2022/12/11 02:48:54;;;;;;;26.35;18.02;;;-2.80;99.90;;;;;;4860821;29;20589;-61
2022/12/11 02:51:21;;;;;;;30.10;18.50;;;-2.80;99.90;;;;;;4860600;29;20046;-62
2022/12/11 02:53:48;;;;;;;29.00;18.13;;;-2.80;99.90;;;;;;4860815;29;20045;-61
2022/12/11 02:56:15;;;;;;;24.02;17.00;;;-2.80;99.90;;;;;;4848902;29;20091;-62
2022/12/11 02:58:41;;;;;;;26.90;17.52;;;-2.80;99.90;;;;;;4841011;29;20098;-62
2022/12/11 03:01:08;;;;;;;32.05;18.15;;;-2.90;99.90;;;;;;4845007;29;20088;-61
2022/12/11 03:03:35;;;;;;;27.30;17.50;;;-2.90;99.90;;;;;;4859011;29;20053;-62
2022/12/11 03:06:02;;;;;;;27.80;17.77;;;-2.90;99.90;;;;;;4858356;29;20573;-61
2022/12/11 03:08:29;;;;;;;26.30;17.98;;;-2.90;99.90;;;;;;4843545;29;20378;-61
2022/12/11 03:10:56;;;;;;;26.13;17.42;;;-2.90;99.90;;;;;;4840583;29;20045;-61
2022/12/11 03:13:23;;;;;;;25.88;17.20;;;-2.90;99.90;;;;;;4841884;29;20046;-61
2022/12/11 03:15:49;;;;;;;29.05;17.45;;;-2.90;99.90;;;;;;4841986;29;20081;-60
2022/12/11 03:18:16;;;;;;;25.80;17.40;;;-3.00;99.90;;;;;;4844434;29;20046;-61
2022/12/11 03:20:43;;;;;;;27.02;17.35;;;-3.00;99.90;;;;;;4845504;29;20090;-61
2022/12/11 03:23:09;;;;;;;25.50;17.05;;;-3.00;99.90;;;;;;4844023;29;20107;-61
2022/12/11 03:25:36;;;;;;;24.45;16.60;;;-3.00;99.90;;;;;;4845502;29;20050;-61
2022/12/11 03:28:03;;;;;;;23.00;15.95;;;-3.00;99.90;;;;;;4845671;29;20097;-61
2022/12/11 03:30:30;;;;;;;21.45;15.75;;;-3.00;99.90;;;;;;4844812;29;20114;-60
2022/12/11 03:32:57;;;;;;;22.90;15.75;;;-3.00;99.90;;;;;;4844138;29;20070;-61
2022/12/11 03:35:23;;;;;;;25.00;15.75;;;-3.00;99.90;;;;;;4844219;29;20387;-61
2022/12/11 03:37:50;;;;;;;22.00;14.85;;;-3.00;99.90;;;;;;4844904;29;20073;-61
2022/12/11 03:40:17;;;;;;;22.27;14.60;;;-3.00;99.90;;;;;;4844773;29;20042;-61
2022/12/11 03:42:44;;;;;;;24.02;14.73;;;-3.00;99.90;;;;;;4847044;29;20529;-61
2022/12/11 03:45:10;;;;;;;19.25;14.32;;;-3.00;99.90;;;;;;4845224;29;20176;-61
2022/12/11 03:47:38;;;;;;;21.27;13.90;;;-3.00;99.90;;;;;;4854974;29;20050;-61
2022/12/11 03:50:04;;;;;;;22.50;13.50;;;-3.00;99.90;;;;;;4863392;29;20097;-61
2022/12/11 03:52:31;;;;;;;23.15;15.07;;;-3.00;99.90;;;;;;4862218;29;20053;-61
2022/12/11 03:54:58;;;;;;;23.80;16.55;;;-3.00;99.90;;;;;;4863681;29;20113;-61
2022/12/11 03:57:25;;;;;;;24.50;16.27;;;-3.10;99.90;;;;;;4861976;29;20486;-62
2022/12/11 03:59:51;;;;;;;23.55;15.73;;;-3.00;99.90;;;;;;4863387;29;20077;-62
2022/12/11 04:02:18;;;;;;;25.23;14.88;;;-3.10;99.90;;;;;;4848783;29;20129;-61
2022/12/11 04:04:45;;;;;;;27.02;15.40;;;-3.10;99.90;;;;;;4844733;29;20042;-61
2022/12/11 04:07:11;;;;;;;21.98;14.98;;;-3.10;99.90;;;;;;4844311;29;20050;-61
2022/12/11 04:09:38;;;;;;;24.05;15.07;;;-3.10;99.90;;;;;;4844854;29;20421;-62
2022/12/11 04:12:05;;;;;;;24.00;15.27;;;-3.10;99.90;;;;;;4853187;29;20153;-61
2022/12/11 04:24:14;;;;;;;25.00;15.50;;;-3.10;99.90;;;;;;4857824;29;20050;-61
2022/12/11 04:25:35;;;;;;;20.88;13.45;;;-3.20;99.90;;;;;;4861396;29;20623;-60
2022/12/11 04:28:02;;;;;;;22.35;14.32;;;-3.20;99.90;;;;;;4862014;29;20505;-62
2022/12/11 04:30:28;;;;;;;31.08;16.30;;;-3.20;99.90;;;;;;4862158;29;20052;-62
2022/12/11 04:33:00;;;;;;;25.13;15.32;;;-3.20;99.90;;;;;;4860114;29;20059;-62
2022/12/11 04:35:26;;;;;;;20.33;14.52;;;-3.20;99.90;;;;;;4856483;29;20050;-61
2022/12/11 04:37:53;;;;;;;24.50;15.38;;;-3.30;99.90;;;;;;4844269;29;20577;-61
2022/12/11 04:40:20;;;;;;;25.23;15.20;;;-3.30;99.90;;;;;;4844187;29;20081;-61
2022/12/11 04:42:46;;;;;;;23.30;15.25;;;-3.30;99.90;;;;;;4843726;29;20038;-61
2022/12/11 04:45:13;;;;;;;20.42;14.38;;;-3.30;99.90;;;;;;4844146;29;20132;-61
2022/12/11 04:47:40;;;;;;;20.52;13.55;;;-3.30;99.90;;;;;;4844522;29;20066;-61
2022/12/11 04:50:07;;;;;;;20.70;13.82;;;-3.20;99.90;;;;;;4844258;29;20056;-62
2022/12/11 04:52:33;;;;;;;19.70;12.38;;;-3.30;99.90;;;;;;4844004;29;20444;-61
2022/12/11 04:55:00;;;;;;;20.63;12.98;;;-3.30;99.90;;;;;;4843747;29;20066;-61
2022/12/11 04:57:27;;;;;;;19.30;13.10;;;-3.40;99.90;;;;;;4843794;29;20050;-62
2022/12/11 04:59:54;;;;;;;17.00;11.85;;;-3.40;99.90;;;;;;4843926;29;20122;-62
2022/12/11 05:02:20;;;;;;;16.70;12.27;;;-3.40;99.90;;;;;;4844562;29;20163;-61
2022/12/11 05:04:47;;;;;;;21.70;12.30;;;-3.40;99.90;;;;;;4843822;29;20125;-61
2022/12/11 05:07:14;;;;;;;19.13;12.80;;;-3.30;99.90;;;;;;4847793;29;20049;-61
2022/12/11 05:09:41;;;;;;;21.55;14.55;;;-3.30;99.90;;;;;;4843728;29;20046;-62
2022/12/11 05:12:08;;;;;;;21.83;13.20;;;-3.20;99.90;;;;;;4843049;29;20398;-61
2022/12/11 05:14:34;;;;;;;21.38;11.57;;;-3.20;99.90;;;;;;4844835;29;20046;-60
2022/12/11 05:17:01;;;;;;;18.58;11.82;;;-3.30;99.90;;;;;;4857353;29;20046;-61
2022/12/11 05:19:28;;;;;;;17.15;11.30;;;-3.30;99.90;;;;;;4843531;29;20550;-62
2022/12/11 05:21:54;;;;;;;17.48;12.07;;;-3.30;99.90;;;;;;4843786;29;20462;-62
2022/12/11 05:24:21;;;;;;;22.10;13.60;;;-3.30;99.90;;;;;;4852686;29;20042;-62
2022/12/11 05:26:48;;;;;;;18.52;12.57;;;-3.30;99.90;;;;;;4858946;29;20541;-62
2022/12/11 05:29:15;;;;;;;20.73;13.50;;;-3.30;99.90;;;;;;4843643;29;20042;-62
2022/12/11 05:31:41;;;;;;;20.17;13.60;;;-3.30;99.90;;;;;;4843708;29;20383;-62
2022/12/11 05:34:08;;;;;;;18.98;12.50;;;-3.30;99.90;;;;;;4843062;29;20058;-62
2022/12/11 05:36:35;;;;;;;20.15;12.60;;;-3.40;99.90;;;;;;4859562;29;20165;-63
2022/12/11 05:39:02;;;;;;;19.70;13.13;;;-3.40;99.90;;;;;;4861595;29;20485;-61
2022/12/11 05:41:28;;;;;;;19.17;12.63;;;-3.40;99.90;;;;;;4860245;29;20121;-60
2022/12/11 05:43:55;;;;;;;17.50;12.52;;;-3.40;99.90;;;;;;4861287;29;20080;-61
2022/12/11 05:46:22;;;;;;;17.33;11.10;;;-3.40;99.90;;;;;;4861104;29;20485;-61
2022/12/11 05:48:49;;;;;;;14.95;10.57;;;-3.40;99.90;;;;;;4850379;29;20110;-61
2022/12/11 05:51:16;;;;;;;18.88;11.50;;;-3.40;99.90;;;;;;4843152;29;20125;-61
2022/12/11 05:53:42;;;;;;;19.02;11.85;;;-3.40;99.90;;;;;;4841885;29;20054;-61
2022/12/11 05:56:09;;;;;;;17.33;11.48;;;-3.40;99.90;;;;;;4842840;29;20514;-62
2022/12/11 05:58:36;;;;;;;20.63;12.10;;;-3.40;99.90;;;;;;4847447;29;20041;-62
2022/12/11 06:01:03;;;;;;;17.08;11.32;;;-3.50;99.90;;;;;;4860657;29;20042;-62
2022/12/11 06:03:29;;;;;;;20.83;13.20;;;-3.50;99.90;;;;;;4861067;29;20086;-62
2022/12/11 06:05:56;;;;;;;19.35;12.65;;;-3.50;99.90;;;;;;4849570;29;20042;-62
2022/12/11 06:08:23;;;;;;;18.80;12.27;;;-3.50;99.90;;;;;;4843036;29;20054;-62
2022/12/11 06:10:50;;;;;;;16.92;11.68;;;-3.50;99.90;;;;;;4843487;29;20042;-61
2022/12/11 06:13:17;;;;;;;18.10;10.57;;;-3.50;99.90;;;;;;4842503;29;20045;-62
2022/12/11 06:15:43;;;;;;;18.00;11.30;;;-3.50;99.90;;;;;;4843226;29;20052;-62
2022/12/11 06:18:10;;;;;;;15.30;9.85;;;-3.40;99.90;;;;;;4860304;29;20098;-61
2022/12/11 06:20:37;;;;;;;17.40;12.13;;;-3.40;99.90;;;;;;4860824;29;20120;-61
2022/12/11 06:23:04;;;;;;;20.63;12.48;;;-3.40;99.90;;;;;;4859640;29;20049;-61
2022/12/11 06:25:31;;;;;;;17.05;11.18;;;-3.40;99.90;;;;;;4858752;29;20490;-61
2022/12/11 06:27:58;;;;;;;17.67;11.30;;;-3.40;99.90;;;;;;4857547;29;20084;-61
2022/12/11 06:30:24;;;;;;;16.55;11.23;;;-3.50;99.90;;;;;;4864520;29;20061;-62
2022/12/11 06:33:05;;;;;;;16.17;11.48;;;-3.50;99.90;;;;;;4857115;29;20493;-62
2022/12/11 06:35:31;;;;;;;17.63;11.93;;;-3.50;99.90;;;;;;4858197;29;20150;-61
2022/12/11 06:38:05;;;;;;;16.60;11.60;;;-3.50;99.90;;;;;;4859116;29;20192;-61
2022/12/11 06:40:32;;;;;;;19.17;12.82;;;-3.60;99.90;;;;;;4860237;29;20073;-61
2022/12/11 06:42:59;;;;;;;18.67;11.40;;;-3.60;99.90;;;;;;4860896;29;20101;-61
2022/12/11 06:45:26;;;;;;;16.15;11.30;;;-3.60;99.90;;;;;;4850598;29;20079;-62
2022/12/11 06:47:53;;;;;;;15.00;10.45;;;-3.60;99.90;;;;;;4841965;29;20050;-61
2022/12/11 06:50:19;;;;;;;16.63;10.95;;;-3.60;99.90;;;;;;4842336;29;20427;-61
2022/12/11 06:52:46;;;;;;;16.67;11.38;;;-3.70;99.90;;;;;;4844130;29;20048;-62
2022/12/11 06:55:13;;;;;;;17.67;11.98;;;-3.70;99.90;;;;;;4848575;29;20346;-62
2022/12/11 06:57:40;;;;;;;17.65;13.15;;;-3.60;99.90;;;;;;4845348;29;20053;-61
2022/12/11 07:00:07;;;;;;;17.88;12.32;;;-3.50;99.90;;;;;;4846270;29;20042;-62
2022/12/11 07:02:33;;;;;;;17.52;12.35;;;-3.50;99.90;;;;;;4852854;29;20048;-62
2022/12/11 07:05:00;;;;;;;18.35;12.82;;;-3.40;99.90;;;;;;4863151;29;20041;-62
2022/12/11 07:07:27;;;;;;;19.65;12.63;;;-3.30;99.90;;;;;;4855782;29;20150;-64
2022/12/11 07:09:54;;;;;;;19.00;12.98;;;-3.30;99.90;;;;;;4862990;29;20064;-62
2022/12/11 07:12:20;;;;;;;29.63;14.45;;;-3.30;99.90;;;;;;4864414;29;20056;-62
2022/12/11 07:14:47;;;;;;;23.20;13.95;;;-3.30;99.90;;;;;;4863021;29;20137;-62
2022/12/11 07:17:14;;;;;;;32.50;14.90;;;-3.20;99.90;;;;;;4860955;29;20128;-62
2022/12/11 07:19:41;;;;;;;30.98;15.23;;;-3.20;99.90;;;;;;4853891;29;20038;-62
2022/12/11 07:22:07;;;;;;;25.80;15.43;;;-3.20;99.90;;;;;;4849303;29;20041;-59
2022/12/11 07:24:34;;;;;;;21.98;13.60;;;-3.20;99.90;;;;;;4864187;29;20468;-62
2022/12/11 07:27:01;;;;;;;23.80;13.73;;;-3.20;99.90;;;;;;4864017;29;20065;-61
2022/12/11 07:29:28;;;;;;;22.15;13.50;;;-3.20;99.90;;;;;;4863988;29;20045;-62
2022/12/11 07:31:54;;;;;;;29.10;15.35;;;-3.20;99.90;;;;;;4861970;29;20053;-62
2022/12/11 07:34:21;;;;;;;24.17;13.68;;;-3.10;99.90;;;;;;4847058;29;20394;-62
2022/12/11 07:36:48;;;;;;;22.77;14.00;;;-3.10;99.90;;;;;;4843915;29;20383;-62
2022/12/11 07:39:15;;;;;;;25.48;14.82;;;-3.00;99.90;;;;;;4858883;29;20078;-62
2022/12/11 07:41:42;;;;;;;27.42;13.90;;;-3.00;99.90;;;;;;4863661;29;20512;-62
2022/12/11 07:44:11;;;;;;;29.27;14.27;;;-3.00;99.90;;;;;;4853686;29;20048;-63
2022/12/11 07:46:38;;;;;;;28.55;15.13;;;-3.00;99.90;;;;;;4846218;29;20042;-62
2022/12/11 07:49:05;;;;;;;30.08;14.30;;;-3.00;99.90;;;;;;4845618;29;20517;-63
2022/12/11 07:51:31;;;;;;;29.45;15.48;;;-3.00;99.90;;;;;;4845200;29;20050;-61
2022/12/11 07:53:58;;;;;;;30.05;14.07;;;-2.90;99.90;;;;;;4858524;29;20530;-62
2022/12/11 07:56:25;;;;;;;32.45;13.82;;;-3.00;99.90;;;;;;4846458;29;20061;-62
2022/12/11 07:58:52;;;;;;;54.58;14.18;;;-3.00;99.90;;;;;;4846929;29;20068;-62
2022/12/11 08:01:19;;;;;;;34.42;14.25;;;-3.00;99.90;;;;;;4845938;29;20054;-62
2022/12/11 08:03:46;;;;;;;58.28;13.88;;;-3.00;99.90;;;;;;4848117;29;20102;-62
2022/12/11 08:06:12;;;;;;;34.65;14.63;;;-3.00;99.90;;;;;;4845150;29;20068;-63
2022/12/11 08:08:40;;;;;;;41.80;15.00;;;-3.00;99.90;;;;;;4861469;29;20046;-62
2022/12/11 08:11:07;;;;;;;25.17;13.52;;;-3.00;99.90;;;;;;4850861;29;20359;-62
2022/12/11 08:13:33;;;;;;;39.63;15.55;;;-3.00;99.90;;;;;;4845134;29;20110;-62
2022/12/11 08:16:00;;;;;;;36.53;16.10;;;-3.00;99.90;;;;;;4843446;29;20093;-62
2022/12/11 08:18:27;;;;;;;39.83;15.73;;;-3.00;99.90;;;;;;4848817;29;20088;-62
2022/12/11 08:20:54;;;;;;;37.97;15.60;;;-2.90;99.90;;;;;;4847542;29;20043;-62
2022/12/11 08:23:20;;;;;;;34.53;16.77;;;-2.90;99.90;;;;;;4861774;29;20049;-62
2022/12/11 08:25:48;;;;;;;32.83;16.25;;;-2.90;99.90;;;;;;4862989;29;20079;-62
2022/12/11 08:28:14;;;;;;;29.50;15.95;;;-2.90;99.90;;;;;;4861098;29;20045;-63
2022/12/11 08:30:41;;;;;;;34.78;17.10;;;-2.90;99.90;;;;;;4854343;29;20128;-62
2022/12/11 08:33:09;;;;;;;30.90;16.83;;;-2.90;99.90;;;;;;4850596;29;20072;-62
2022/12/11 08:35:36;;;;;;;33.00;15.98;;;-2.90;99.90;;;;;;4862815;29;20073;-63
2022/12/11 08:38:02;;;;;;;32.50;15.70;;;-2.90;99.90;;;;;;4861807;29;20094;-61
2022/12/11 08:40:29;;;;;;;34.92;14.75;;;-2.80;99.90;;;;;;4855209;29;20443;-61
2022/12/11 08:42:56;;;;;;;22.38;14.25;;;-2.80;99.90;;;;;;4847565;29;20046;-62
2022/12/11 08:45:23;;;;;;;31.33;15.43;;;-2.70;99.90;;;;;;4851166;29;20079;-62
2022/12/11 08:47:50;;;;;;;40.67;15.57;;;-2.60;99.90;;;;;;4862477;29;20053;-62
2022/12/11 08:50:16;;;;;;;29.08;14.45;;;-2.70;99.90;;;;;;4861491;29;20057;-63
2022/12/11 08:52:43;;;;;;;32.65;15.98;;;-2.60;99.90;;;;;;4862475;29;20109;-61
2022/12/11 08:55:10;;;;;;;23.60;14.23;;;-2.60;99.90;;;;;;4859133;29;20117;-62
2022/12/11 08:57:38;;;;;;;25.80;14.10;;;-2.60;99.90;;;;;;4862686;29;20061;-64
2022/12/11 09:00:05;;;;;;;35.45;14.23;;;-2.50;99.90;;;;;;4860985;29;20434;-63
2022/12/11 09:02:32;;;;;;;22.63;14.18;;;-2.50;99.90;;;;;;4852900;29;20045;-63
2022/12/11 09:04:58;;;;;;;25.23;13.32;;;-2.50;99.90;;;;;;4857516;29;20046;-62
2022/12/11 09:07:25;;;;;;;37.83;14.48;;;-2.50;99.90;;;;;;4853370;29;20069;-63
2022/12/11 09:09:52;;;;;;;35.17;14.02;;;-2.40;99.90;;;;;;4844976;29;20065;-63
2022/12/11 09:12:18;;;;;;;26.10;14.00;;;-2.50;99.90;;;;;;4853497;29;20406;-62
2022/12/11 09:14:45;;;;;;;38.08;13.65;;;-2.40;99.90;;;;;;4859926;29;20106;-62
2022/12/11 09:17:12;;;;;;;34.25;14.77;;;-2.40;99.90;;;;;;4860830;29;20478;-62
2022/12/11 09:19:39;;;;;;;53.05;15.18;;;-2.40;99.90;;;;;;4848552;29;20438;-62
2022/12/11 09:22:05;;;;;;;54.95;13.95;;;-2.30;99.90;;;;;;4852046;29;20074;-63
2022/12/11 09:24:32;;;;;;;47.15;14.80;;;-2.30;99.90;;;;;;4845924;29;20477;-62
2022/12/11 09:26:59;;;;;;;41.83;15.40;;;-2.20;99.90;;;;;;4843658;29;20050;-62
2022/12/11 09:29:26;;;;;;;56.00;15.07;;;-2.20;99.90;;;;;;4849863;29;20128;-65
2022/12/11 09:31:53;;;;;;;40.95;15.13;;;-2.30;99.90;;;;;;4849521;29;20054;-61
2022/12/11 09:34:20;;;;;;;38.80;14.90;;;-2.20;99.90;;;;;;4846882;29;20157;-62
2022/12/11 09:36:54;;;;;;;44.60;14.90;;;-2.20;99.90;;;;;;4843159;29;20551;-62
2022/12/11 09:39:21;;;;;;;46.75;15.25;;;-2.20;99.90;;;;;;4847859;29;20113;-62
2022/12/11 09:41:47;;;;;;;26.27;13.60;;;-2.20;99.90;;;;;;4852607;29;20104;-62
2022/12/11 09:44:14;;;;;;;27.08;15.40;;;-2.20;99.90;;;;;;4859273;29;20073;-60
2022/12/11 09:46:41;;;;;;;35.83;15.52;;;-2.20;99.90;;;;;;4850887;29;20132;-60
2022/12/11 09:49:08;;;;;;;31.80;15.43;;;-2.10;99.90;;;;;;4858697;29;20053;-60
2022/12/11 09:51:34;;;;;;;33.83;14.32;;;-2.10;99.90;;;;;;4861693;29;20363;-60
2022/12/11 09:54:01;;;;;;;27.02;14.65;;;-2.10;99.90;;;;;;4855675;29;20073;-61
2022/12/11 09:56:28;;;;;;;27.73;14.20;;;-2.20;99.90;;;;;;4850606;29;20507;-61
2022/12/11 09:58:54;;;;;;;37.72;14.77;;;-2.20;99.90;;;;;;4848142;29;20069;-61
2022/12/11 10:01:21;;;;;;;22.33;13.88;;;-2.20;99.90;;;;;;4843572;29;20110;-61
2022/12/11 10:03:49;;;;;;;20.88;13.82;;;-2.20;99.90;;;;;;4856705;29;20041;-61
2022/12/11 10:06:15;;;;;;;24.67;14.02;;;-2.10;99.90;;;;;;4850224;29;20507;-61
2022/12/11 10:08:42;;;;;;;23.80;13.93;;;-2.10;99.90;;;;;;4841813;29;20129;-61
2022/12/11 10:11:09;;;;;;;25.00;13.93;;;-2.00;99.90;;;;;;4842129;29;20459;-62
2022/12/11 10:13:36;;;;;;;23.40;14.70;;;-1.90;99.90;;;;;;4842894;29;20046;-62
2022/12/11 10:16:02;;;;;;;23.00;13.77;;;-1.90;99.90;;;;;;4856739;29;20121;-60
2022/12/11 10:18:29;;;;;;;24.35;14.57;;;-1.90;99.90;;;;;;4858393;29;20042;-61
2022/12/11 10:20:56;;;;;;;24.13;14.65;;;-1.80;99.90;;;;;;4841930;29;20098;-60
2022/12/11 10:23:23;;;;;;;26.58;15.35;;;-1.70;99.90;;;;;;4846020;29;20053;-61
2022/12/11 10:25:50;;;;;;;25.75;15.82;;;-1.70;99.90;;;;;;4843025;29;20050;-60
2022/12/11 10:28:16;;;;;;;26.13;14.95;;;-1.70;99.90;;;;;;4853130;29;20045;-61
2022/12/11 10:30:43;;;;;;;26.45;15.68;;;-1.70;99.90;;;;;;4849985;29;20428;-60
2022/12/11 10:33:10;;;;;;;27.10;16.77;;;-1.60;99.90;;;;;;4856118;29;20090;-61
2022/12/11 10:35:37;;;;;;;26.30;15.52;;;-1.60;99.90;;;;;;4858382;29;20072;-60
2022/12/11 10:38:03;;;;;;;28.90;17.83;;;-1.50;99.90;;;;;;4852670;29;20148;-61
2022/12/11 10:40:31;;;;;;;29.55;16.65;;;-1.50;99.90;;;;;;4850692;29;20065;-61
2022/12/11 10:42:57;;;;;;;30.30;17.75;;;-1.40;99.90;;;;;;4842130;29;20106;-60
2022/12/11 10:45:24;;;;;;;29.15;17.65;;;-1.40;99.90;;;;;;4842393;29;20073;-61
2022/12/11 10:47:51;;;;;;;32.28;19.67;;;-1.30;99.90;;;;;;4844931;29;20050;-62
2022/12/11 10:50:18;;;;;;;33.30;18.80;;;-1.30;99.90;;;;;;4841280;29;20099;-61
2022/12/11 10:52:44;;;;;;;33.67;18.55;;;-1.30;99.90;;;;;;4855090;29;20093;-61
2022/12/11 10:55:11;;;;;;;31.13;18.30;;;-1.20;99.90;;;;;;4846430;29;20045;-63
2022/12/11 10:57:38;;;;;;;32.67;18.95;;;-1.20;99.90;;;;;;4856157;29;20076;-62
2022/12/11 11:00:05;;;;;;;38.47;21.25;;;-1.20;99.90;;;;;;4854324;29;20041;-62
2022/12/11 11:02:31;;;;;;;35.90;20.80;;;-1.10;99.90;;;;;;4852152;29;20113;-62
2022/12/11 11:04:58;;;;;;;36.15;20.58;;;-1.10;99.90;;;;;;4851274;29;20094;-62
2022/12/11 11:07:25;;;;;;;33.40;19.77;;;-1.10;99.90;;;;;;4842072;29;20046;-62
2022/12/11 11:09:53;;;;;;;35.03;20.08;;;-1.20;99.90;;;;;;4845485;29;20132;-62
2022/12/11 11:12:19;;;;;;;36.17;21.00;;;-1.10;99.90;;;;;;4857929;29;20064;-62
2022/12/11 11:14:46;;;;;;;37.70;22.33;;;-1.20;99.90;;;;;;4850220;29;20069;-62
2022/12/11 11:17:13;;;;;;;44.22;23.67;;;-1.10;99.90;;;;;;4857068;29;20049;-62
2022/12/11 11:19:40;;;;;;;47.17;23.83;;;-1.10;99.90;;;;;;4853529;29;20041;-62
2022/12/11 11:22:06;;;;;;;42.63;23.88;;;-1.10;99.90;;;;;;4851606;29;20042;-62
2022/12/11 11:24:33;;;;;;;43.95;25.38;;;-1.00;99.90;;;;;;4850736;29;20067;-62
2022/12/11 11:27:00;;;;;;;42.97;25.17;;;-1.00;99.90;;;;;;4848802;29;20077;-62
2022/12/11 11:29:42;;;;;;;49.53;24.27;;;-0.90;99.90;;;;;;4842578;29;20124;-62
2022/12/11 11:32:09;;;;;;;43.03;23.88;;;-0.80;99.90;;;;;;4853405;29;20053;-62
2022/12/11 11:34:35;;;;;;;46.20;24.88;;;-0.80;99.90;;;;;;4853183;29;20502;-62
2022/12/11 11:37:04;;;;;;;47.08;25.50;;;-0.70;99.90;;;;;;4849440;29;20432;-62
2022/12/11 11:39:31;;;;;;;47.80;26.20;;;-0.80;99.90;;;;;;4855496;29;20052;-62
2022/12/11 11:41:58;;;;;;;52.88;28.27;;;-0.80;99.90;;;;;;4850676;29;20046;-62
2022/12/11 11:44:25;;;;;;;51.30;29.40;;;-0.80;99.90;;;;;;4855030;29;20050;-62
2022/12/11 11:46:51;;;;;;;53.17;29.30;;;-0.80;99.90;;;;;;4855339;29;20056;-62
2022/12/11 11:49:18;;;;;;;52.13;30.25;;;-0.80;99.90;;;;;;4853608;29;20399;-62
2022/12/11 11:51:45;;;;;;;48.58;30.05;;;-0.80;99.90;;;;;;4856642;29;20044;-62
2022/12/11 11:54:12;;;;;;;47.97;29.63;;;-0.80;99.90;;;;;;4856904;29;20057;-62
2022/12/11 11:56:38;;;;;;;44.20;27.05;;;-0.80;99.90;;;;;;4855457;29;20105;-62
2022/12/11 11:59:05;;;;;;;42.90;27.02;;;-0.70;99.90;;;;;;4850364;29;20065;-62
2022/12/11 12:01:32;;;;;;;32.75;21.80;;;-0.70;99.90;;;;;;4849718;29;20098;-62
2022/12/11 12:03:59;;;;;;;34.38;20.85;;;-0.70;99.90;;;;;;4845414;29;20042;-62
2022/12/11 12:06:25;;;;;;;52.88;20.73;;;-0.60;99.90;;;;;;4851232;29;20042;-62
2022/12/11 12:08:52;;;;;;;32.10;19.95;;;-0.60;99.90;;;;;;4857019;29;20506;-62
2022/12/11 12:11:19;;;;;;;38.08;23.35;;;-0.60;99.90;;;;;;4850828;29;20050;-62
2022/12/11 12:13:46;;;;;;;40.42;20.63;;;-0.60;99.90;;;;;;4844092;29;20045;-62
2022/12/11 12:16:15;;;;;;;27.33;18.70;;;-0.60;99.90;;;;;;4855508;29;20101;-62
2022/12/11 12:19:02;;;;;;;35.78;18.67;;;-0.60;99.90;;;;;;4854521;29;20144;-63
2022/12/11 12:21:29;;;;;;;32.15;19.27;;;-0.50;99.90;;;;;;4849073;29;20038;-62
2022/12/11 12:23:56;;;;;;;29.00;19.45;;;-0.40;99.90;;;;;;4860931;29;20041;-62
2022/12/11 12:26:22;;;;;;;34.30;19.55;;;-0.30;99.90;;;;;;4859806;29;20494;-61
2022/12/11 12:28:50;;;;;;;29.45;18.83;;;-0.30;99.90;;;;;;4857062;29;20049;-62
2022/12/11 12:31:17;;;;;;;28.83;18.75;;;-0.20;99.90;;;;;;4858056;29;20451;-62
2022/12/11 12:33:44;;;;;;;31.63;19.75;;;-0.10;99.90;;;;;;4848822;29;20057;-63